createdAt,value
2019-01-05T00:01:53.302Z,2.27
2019-01-05T00:04:40.134Z,2.93
2019-01-05T00:07:27.067Z,3.57
2019-01-05T00:10:11.000Z,2.27
2019-01-05T00:13:06.556Z,2.33
2019-01-05T00:15:53.847Z,2.07
2019-01-05T00:18:54.620Z,1.67
2019-01-05T00:22:03.136Z,2.40
2019-01-05T00:24:57.355Z,2.43
2019-01-05T00:27:58.722Z,1.63
2019-01-05T00:31:03.409Z,1.77
2019-01-05T00:34:02.355Z,1.40
2019-01-05T00:36:53.351Z,1.47
2019-01-05T00:39:38.321Z,1.53
2019-01-05T00:42:36.832Z,2.20
2019-01-05T00:45:23.909Z,1.23
2019-01-05T00:48:14.381Z,2.05
2019-01-05T00:51:04.594Z,2.20
2019-01-05T00:53:52.403Z,1.70
2019-01-05T00:56:42.351Z,1.90
2019-01-05T00:59:34.356Z,2.47
2019-01-05T01:02:34.658Z,1.80
2019-01-05T01:05:41.316Z,2.50
2019-01-05T01:08:35.577Z,1.90
2019-01-05T01:11:24.473Z,2.10
2019-01-05T01:14:18.715Z,2.70
2019-01-05T01:17:05.871Z,2.10
2019-01-05T01:19:51.590Z,2.77
2019-01-05T01:22:42.163Z,2.30
2019-01-05T01:25:31.830Z,2.00
2019-01-05T01:28:23.774Z,2.20
2019-01-05T01:31:11.445Z,2.30
2019-01-05T01:34:09.602Z,2.50
2019-01-05T01:37:07.775Z,2.70
2019-01-05T01:40:06.680Z,1.93
2019-01-05T01:43:01.279Z,1.73
2019-01-05T01:45:51.481Z,1.67
2019-01-05T01:48:40.279Z,1.30
2019-01-05T01:51:44.628Z,1.67
2019-01-05T01:54:37.014Z,1.27
2019-01-05T01:57:32.722Z,2.33
2019-01-05T02:00:26.244Z,1.40
2019-01-05T02:03:17.916Z,2.10
2019-01-05T02:06:09.289Z,1.53
2019-01-05T02:09:14.009Z,1.10
2019-01-05T02:12:24.069Z,1.07
2019-01-05T02:15:25.104Z,1.27
2019-01-05T02:19:01.594Z,1.70
2019-01-05T02:22:32.067Z,1.10
2019-01-05T02:26:00.968Z,0.90
2019-01-05T02:29:44.154Z,1.67
2019-01-05T02:33:14.869Z,1.67
2019-01-05T02:36:25.266Z,2.23
2019-01-05T02:40:16.349Z,1.30
2019-01-05T02:43:45.320Z,1.93
2019-01-05T02:47:10.015Z,1.40
2019-01-05T02:50:53.884Z,1.50
2019-01-05T02:54:25.523Z,1.60
2019-01-05T02:58:03.955Z,1.53
2019-01-05T03:01:25.597Z,1.73
2019-01-05T03:04:52.867Z,1.97
2019-01-05T03:08:11.632Z,2.17
2019-01-05T03:11:34.359Z,2.60
2019-01-05T03:14:58.300Z,1.70
2019-01-05T03:18:16.743Z,2.03
2019-01-05T03:21:57.166Z,1.70
2019-01-05T03:25:20.240Z,2.23
2019-01-05T03:28:54.360Z,2.30
2019-01-05T03:32:16.879Z,2.67
2019-01-05T03:35:43.245Z,2.57
2019-01-05T03:39:33.942Z,2.43
2019-01-05T03:43:38.890Z,1.97
2019-01-05T03:47:19.061Z,2.00
2019-01-05T03:50:52.168Z,2.17
2019-01-05T03:54:25.748Z,1.60
2019-01-05T03:57:35.274Z,1.43
2019-01-05T04:00:56.269Z,2.83
2019-01-05T04:04:31.274Z,2.33
2019-01-05T04:07:54.516Z,1.70
2019-01-05T04:11:21.101Z,1.77
2019-01-05T04:14:54.811Z,1.90
2019-01-05T04:18:21.101Z,1.93
2019-01-05T04:22:00.490Z,1.97
2019-01-05T04:25:40.175Z,2.40
2019-01-05T04:29:12.563Z,2.40
2019-01-05T04:32:43.216Z,1.87
2019-01-05T04:36:06.054Z,3.03
2019-01-05T04:39:44.218Z,2.77
2019-01-05T04:43:07.388Z,3.40
2019-01-05T04:46:41.463Z,1.90
2019-01-05T04:50:12.713Z,2.17
2019-01-05T04:53:26.968Z,2.17
2019-01-05T04:57:02.994Z,3.53
2019-01-05T05:00:31.755Z,2.13
2019-01-05T05:04:18.133Z,2.63
2019-01-05T05:07:26.322Z,2.70
2019-01-05T05:10:59.988Z,3.50
2019-01-05T05:14:39.401Z,3.10
2019-01-05T05:17:52.244Z,2.73
2019-01-05T05:21:25.703Z,2.93
2019-01-05T05:25:11.830Z,2.23
2019-01-05T05:28:42.809Z,2.10
2019-01-05T05:32:27.001Z,2.20
2019-01-05T05:36:12.653Z,2.20
2019-01-05T05:39:29.369Z,2.63
2019-01-05T05:42:54.853Z,2.50
2019-01-05T05:46:01.668Z,1.80
2019-01-05T05:49:32.627Z,2.00
2019-01-05T05:52:46.254Z,2.67
2019-01-05T05:56:13.001Z,2.93
2019-01-05T05:59:30.775Z,2.40
2019-01-05T06:02:45.738Z,1.90
2019-01-05T06:06:14.883Z,2.13
2019-01-05T06:09:38.817Z,2.00
2019-01-05T06:13:35.610Z,1.80
2019-01-05T06:17:11.852Z,2.27
2019-01-05T06:20:32.725Z,1.67
2019-01-05T06:24:13.549Z,1.93
2019-01-05T06:27:28.606Z,2.40
2019-01-05T06:31:08.263Z,2.20
2019-01-05T06:34:36.535Z,2.73
2019-01-05T06:37:47.932Z,2.33
2019-01-05T06:41:11.575Z,2.87
2019-01-05T06:44:46.748Z,3.10
2019-01-05T06:48:14.553Z,2.30
2019-01-05T06:51:55.401Z,2.33
2019-01-05T06:55:27.045Z,2.30
2019-01-05T06:59:19.973Z,2.90
2019-01-05T07:02:55.073Z,2.60
2019-01-05T07:06:38.530Z,2.80
2019-01-05T07:10:12.527Z,2.50
2019-01-05T07:13:24.712Z,2.17
2019-01-05T07:16:42.484Z,2.70
2019-01-05T07:20:19.991Z,2.30
2019-01-05T07:23:46.020Z,2.73
2019-01-05T07:27:25.064Z,2.40
2019-01-05T07:30:44.536Z,2.40
2019-01-05T07:34:11.384Z,2.23
2019-01-05T07:37:51.657Z,2.27
2019-01-05T07:41:27.885Z,1.80
2019-01-05T07:45:21.599Z,1.90
2019-01-05T07:48:38.863Z,1.63
2019-01-05T07:52:28.280Z,1.90
2019-01-05T07:56:14.643Z,1.57
2019-01-05T07:59:36.800Z,1.60
2019-01-05T08:03:10.906Z,1.73
2019-01-05T08:06:48.769Z,1.97
2019-01-05T08:10:25.461Z,1.90
2019-01-05T08:13:59.550Z,1.80
2019-01-05T08:17:49.000Z,1.80
2019-01-05T08:21:21.309Z,1.83
2019-01-05T08:25:02.406Z,1.90
2019-01-05T08:28:26.654Z,1.83
2019-01-05T08:31:45.246Z,2.20
2019-01-05T08:35:47.650Z,2.10
2019-01-05T08:39:17.504Z,1.90
2019-01-05T08:42:40.891Z,1.80
2019-01-05T08:46:33.751Z,2.10
2019-01-05T08:50:24.370Z,1.80
2019-01-05T08:53:51.534Z,2.30
2019-01-05T08:57:22.920Z,1.63
2019-01-05T09:01:06.851Z,2.10
2019-01-05T09:04:31.030Z,2.27
2019-01-05T09:07:46.374Z,1.90
2019-01-05T09:11:08.089Z,2.73
2019-01-05T09:14:25.124Z,2.13
2019-01-05T09:17:53.198Z,2.53
2019-01-05T09:21:32.838Z,2.40
2019-01-05T09:25:13.416Z,2.10
2019-01-05T09:28:54.498Z,2.27
2019-01-05T09:32:10.594Z,2.57
2019-01-05T09:35:41.115Z,2.10
2019-01-05T09:39:22.230Z,3.27
2019-01-05T09:42:55.325Z,1.93
2019-01-05T09:46:25.612Z,2.57
2019-01-05T09:49:44.128Z,2.37
2019-01-05T09:53:26.543Z,2.30
2019-01-05T09:56:58.981Z,2.47
2019-01-05T10:00:44.047Z,2.57
2019-01-05T10:04:11.483Z,2.30
2019-01-05T10:07:28.701Z,1.50
2019-01-05T10:11:11.198Z,1.83
2019-01-05T10:14:36.388Z,2.33
2019-01-05T10:18:33.383Z,2.40
2019-01-05T10:22:18.149Z,2.27
2019-01-05T10:26:05.727Z,1.87
2019-01-05T10:29:46.774Z,2.23
2019-01-05T10:33:38.092Z,2.43
2019-01-05T10:37:16.080Z,2.83
2019-01-05T10:40:41.818Z,2.00
2019-01-05T10:44:03.858Z,2.03
2019-01-05T10:47:36.649Z,2.37
2019-01-05T10:50:50.973Z,2.10
2019-01-05T10:54:25.201Z,2.20
2019-01-05T10:57:42.974Z,2.50
2019-01-05T11:01:05.216Z,3.70
2019-01-05T11:04:31.806Z,1.87
2019-01-05T11:07:55.086Z,1.90
2019-01-05T11:11:15.402Z,1.77
2019-01-05T11:14:50.012Z,1.93
2019-01-05T11:18:20.083Z,1.97
2019-01-05T11:21:51.602Z,1.40
2019-01-05T11:25:17.101Z,1.70
2019-01-05T11:28:39.542Z,1.70
2019-01-05T11:31:55.383Z,1.90
2019-01-05T11:35:22.942Z,2.10
2019-01-05T11:38:58.961Z,2.23
2019-01-05T11:42:39.373Z,2.30
2019-01-05T11:46:16.090Z,2.62
2019-01-05T11:50:15.625Z,3.27
2019-01-05T11:53:40.389Z,2.30
2019-01-05T11:57:14.976Z,2.60
2019-01-05T12:00:44.087Z,2.30
2019-01-05T12:04:14.295Z,3.02
2019-01-05T12:07:51.061Z,4.00
2019-01-05T12:11:20.095Z,3.27
2019-01-05T12:14:44.682Z,4.40
2019-01-05T12:18:12.113Z,3.30
2019-01-05T12:21:52.059Z,3.23
2019-01-05T12:25:36.638Z,2.97
2019-01-05T12:29:09.229Z,3.30
2019-01-05T12:33:12.663Z,2.47
2019-01-05T12:36:54.388Z,3.47
2019-01-05T12:40:35.821Z,3.77
2019-01-05T12:44:04.556Z,4.00
2019-01-05T12:47:31.109Z,3.53
2019-01-05T12:51:04.631Z,2.60
2019-01-05T12:54:25.027Z,3.10
2019-01-05T12:58:04.276Z,2.60
2019-01-05T13:01:26.034Z,3.40
2019-01-05T13:05:05.315Z,2.70
2019-01-05T13:08:32.881Z,3.17
2019-01-05T13:11:59.281Z,2.73
2019-01-05T13:15:27.761Z,2.33
2019-01-05T13:18:44.904Z,2.50
2019-01-05T13:22:15.957Z,2.13
2019-01-05T13:25:51.883Z,2.13
2019-01-05T13:29:18.924Z,2.53
2019-01-05T13:32:58.424Z,2.00
2019-01-05T13:36:42.727Z,2.23
2019-01-05T13:40:24.238Z,1.80
2019-01-05T13:43:53.134Z,2.20
2019-01-05T13:47:09.825Z,2.97
2019-01-05T13:50:42.116Z,2.50
2019-01-05T13:53:34.849Z,2.43
2019-01-05T13:56:34.016Z,2.43
2019-01-05T13:59:21.129Z,1.70
2019-01-05T14:02:08.796Z,2.40
2019-01-05T14:04:57.205Z,2.80
2019-01-05T14:07:44.736Z,2.43
2019-01-05T14:10:32.813Z,2.67
2019-01-05T14:13:24.544Z,2.93
2019-01-05T14:16:16.055Z,2.43
2019-01-05T14:19:20.189Z,2.23
2019-01-05T14:22:03.364Z,2.30
2019-01-05T14:24:54.488Z,3.30
2019-01-05T14:27:46.579Z,3.37
2019-01-05T14:30:33.613Z,3.00
2019-01-05T14:33:37.075Z,2.63
2019-01-05T14:36:31.282Z,2.90
2019-01-05T14:39:32.526Z,2.07
2019-01-05T14:42:26.696Z,2.57
2019-01-05T14:45:16.415Z,2.17
2019-01-05T14:48:16.801Z,1.77
2019-01-05T14:51:12.151Z,2.70
2019-01-05T14:54:15.782Z,2.77
2019-01-05T14:57:03.327Z,1.80
2019-01-05T14:59:50.328Z,1.63
2019-01-05T15:02:53.408Z,2.03
2019-01-05T15:05:40.734Z,2.47
2019-01-05T15:08:27.962Z,2.67
2019-01-05T15:11:28.288Z,1.90
2019-01-05T15:14:16.556Z,1.63
2019-01-05T15:17:14.091Z,1.93
2019-01-05T15:20:01.576Z,1.63
2019-01-05T15:22:52.634Z,2.00
2019-01-05T15:25:42.226Z,2.13
2019-01-05T15:28:29.738Z,2.17
2019-01-05T15:31:21.277Z,2.40
2019-01-05T15:34:27.748Z,1.83
2019-01-05T15:37:28.852Z,2.50
2019-01-05T15:40:17.683Z,3.13
2019-01-05T15:43:09.101Z,2.00
2019-01-05T15:46:08.047Z,2.10
2019-01-05T15:49:02.205Z,2.40
2019-01-05T15:51:53.726Z,2.30
2019-01-05T15:55:02.170Z,2.80
2019-01-05T15:57:51.520Z,3.37
2019-01-05T16:00:38.742Z,2.40
2019-01-05T16:03:39.042Z,2.17
2019-01-05T16:06:26.229Z,1.80
2019-01-05T16:09:14.575Z,2.70
2019-01-05T16:12:01.956Z,2.90
2019-01-05T16:14:56.225Z,3.07
2019-01-05T16:17:44.993Z,1.97
2019-01-05T16:20:32.159Z,2.40
2019-01-05T16:23:19.521Z,2.10
2019-01-05T16:26:18.583Z,2.70
2019-01-05T16:29:15.938Z,1.80
2019-01-05T16:32:05.476Z,2.70
2019-01-05T16:35:00.819Z,2.77
2019-01-05T16:37:52.174Z,2.47
2019-01-05T16:40:53.661Z,3.20
2019-01-05T16:44:02.817Z,3.57
2019-01-05T16:46:51.144Z,2.63
2019-01-05T16:49:38.380Z,2.30
2019-01-05T16:52:39.131Z,1.90
2019-01-05T16:55:42.426Z,1.77
2019-01-05T16:58:30.852Z,3.00
2019-01-05T17:01:22.690Z,5.00
2019-01-05T17:04:21.570Z,2.20
2019-01-05T17:07:13.869Z,5.23
2019-01-05T17:10:18.125Z,2.20
2019-01-05T17:13:05.134Z,3.90
2019-01-05T17:16:08.986Z,2.53
2019-01-05T17:19:07.582Z,2.20
2019-01-05T17:21:58.850Z,2.87
2019-01-05T17:24:53.203Z,3.67
2019-01-05T17:27:44.638Z,3.00
2019-01-05T17:30:41.057Z,2.37
2019-01-05T17:33:44.549Z,1.80
2019-01-05T17:36:31.732Z,2.27
2019-01-05T17:39:25.553Z,3.67
2019-01-05T17:42:20.250Z,3.67
2019-01-05T17:45:07.262Z,2.30
2019-01-05T17:48:02.065Z,2.80
2019-01-05T17:50:49.366Z,3.23
2019-01-05T17:53:40.414Z,4.67
2019-01-05T17:56:37.828Z,2.40
2019-01-05T17:59:24.859Z,4.17
2019-01-05T18:02:13.161Z,2.57
2019-01-05T18:05:02.003Z,2.60
2019-01-05T18:08:05.671Z,2.93
2019-01-05T18:11:12.041Z,3.17
2019-01-05T18:13:59.267Z,3.53
2019-01-05T18:16:47.617Z,4.60
2019-01-05T18:19:54.269Z,3.70
2019-01-05T18:22:41.575Z,5.63
2019-01-05T18:25:28.591Z,3.97
2019-01-05T18:28:15.933Z,3.83
2019-01-05T18:31:02.750Z,2.93
2019-01-05T18:33:57.044Z,2.87
2019-01-05T18:36:46.029Z,3.93
2019-01-05T18:39:33.255Z,2.77
2019-01-05T18:42:27.512Z,3.07
2019-01-05T18:45:14.644Z,3.37
2019-01-05T18:48:18.253Z,2.20
2019-01-05T18:51:10.693Z,3.67
2019-01-05T18:54:01.077Z,2.60
2019-01-05T18:56:48.109Z,2.70
2019-01-05T18:59:39.244Z,1.90
2019-01-05T19:02:36.908Z,2.40
2019-01-05T19:05:37.398Z,2.70
2019-01-05T19:08:25.671Z,1.97
2019-01-05T19:11:17.038Z,2.07
2019-01-05T19:14:08.367Z,2.50
2019-01-05T19:17:02.968Z,1.90
2019-01-05T19:19:54.292Z,1.90
2019-01-05T19:22:49.352Z,2.87
2019-01-05T19:25:37.294Z,2.93
2019-01-05T19:28:28.327Z,2.47
2019-01-05T19:31:21.415Z,2.80
2019-01-05T19:34:10.775Z,2.77
2019-01-05T19:37:04.833Z,2.00
2019-01-05T19:40:09.810Z,3.13
2019-01-05T19:43:00.711Z,2.60
2019-01-05T19:45:49.032Z,2.90
2019-01-05T19:48:40.567Z,2.70
2019-01-05T19:51:24.475Z,2.70
2019-01-05T19:54:11.916Z,2.33
2019-01-05T19:57:18.624Z,2.53
2019-01-05T20:00:05.505Z,2.87
2019-01-05T20:02:52.084Z,2.90
2019-01-05T20:05:43.390Z,2.13
2019-01-05T20:08:49.762Z,2.73
2019-01-05T20:11:56.304Z,3.00
2019-01-05T20:14:59.758Z,2.40
2019-01-05T20:17:48.254Z,3.03
2019-01-05T20:20:37.079Z,3.83
2019-01-05T20:23:34.889Z,2.53
2019-01-05T20:26:41.415Z,2.70
2019-01-05T20:29:39.065Z,3.03
2019-01-05T20:32:25.967Z,2.37
2019-01-05T20:35:18.931Z,2.77
2019-01-05T20:38:09.186Z,2.77
2019-01-05T20:40:56.219Z,2.90
2019-01-05T20:43:58.566Z,2.50
2019-01-05T20:46:49.845Z,2.80
2019-01-05T20:49:47.522Z,2.37
2019-01-05T20:52:39.021Z,3.60
2019-01-05T20:55:27.366Z,2.67
2019-01-05T20:58:14.602Z,3.03
2019-01-05T21:01:15.334Z,2.83
2019-01-05T21:04:03.656Z,3.20
2019-01-05T21:07:03.994Z,3.33
2019-01-05T21:10:17.370Z,3.67
2019-01-05T21:13:17.129Z,3.90
2019-01-05T21:16:04.393Z,3.73
2019-01-05T21:19:04.690Z,3.73
2019-01-05T21:22:01.860Z,4.60
2019-01-05T21:24:48.761Z,4.00
2019-01-05T21:27:35.097Z,3.27
2019-01-05T21:30:39.761Z,3.53
2019-01-05T21:33:26.984Z,3.57
2019-01-05T21:36:27.607Z,3.27
2019-01-05T21:39:16.268Z,3.53
2019-01-05T21:42:10.177Z,3.47
2019-01-05T21:45:16.818Z,3.57
2019-01-05T21:48:12.562Z,2.93
2019-01-05T21:51:03.139Z,2.17
2019-01-05T21:53:51.446Z,2.93
2019-01-05T21:56:40.625Z,3.07
2019-01-05T21:59:35.117Z,3.30
2019-01-05T22:02:12.240Z,4.03
2019-01-05T22:05:05.761Z,3.83
2019-01-05T22:08:11.443Z,3.70
2019-01-05T22:11:05.370Z,3.67
2019-01-05T22:13:53.601Z,3.93
2019-01-05T22:16:57.009Z,3.63
2019-01-05T22:20:03.645Z,3.73
2019-01-05T22:22:54.920Z,2.87
2019-01-05T22:25:49.055Z,3.40
2019-01-05T22:28:36.065Z,3.57
2019-01-05T22:31:24.520Z,2.30
2019-01-05T22:34:15.015Z,2.60
2019-01-05T22:37:01.826Z,2.93
2019-01-05T22:39:48.874Z,2.53
2019-01-05T22:42:35.848Z,2.70
2019-01-05T22:45:30.096Z,2.80
2019-01-05T22:48:21.294Z,2.90
2019-01-05T22:51:21.423Z,3.00
2019-01-05T22:54:04.816Z,2.60
2019-01-05T22:56:51.232Z,3.43
2019-01-05T22:59:42.255Z,3.30
2019-01-05T23:02:29.096Z,3.43
2019-01-05T23:05:27.448Z,3.43
2019-01-05T23:08:21.738Z,3.33
2019-01-05T23:11:24.016Z,3.00
2019-01-05T23:14:24.199Z,3.50
2019-01-05T23:17:15.193Z,3.77
2019-01-05T23:20:04.058Z,3.30
2019-01-05T23:22:52.647Z,3.77
2019-01-05T23:25:47.092Z,3.57
2019-01-05T23:28:53.588Z,4.10
2019-01-05T23:31:48.424Z,5.30
2019-01-05T23:34:54.154Z,4.60
2019-01-05T23:37:41.057Z,3.87
2019-01-05T23:40:37.726Z,4.73
2019-01-05T23:43:24.835Z,5.30
2019-01-05T23:46:03.582Z,4.00
2019-01-05T23:48:54.952Z,4.17
2019-01-05T23:51:50.383Z,4.40
2019-01-05T23:54:50.107Z,4.63
2019-01-05T23:57:38.389Z,3.70
